sensor_id;sensor_type;location;lat;lon;timestamp;P1;durP1;ratioP1;P2;durP2;ratioP2
76296;SDS011;65104;52.994;6.552;2023-01-29T00:01:11;16.13;;;8.70;;
76296;SDS011;65104;52.994;6.552;2023-01-29T00:03:36;15.65;;;8.93;;
76296;SDS011;65104;52.994;6.552;2023-01-29T00:06:05;15.10;;;8.20;;
76296;SDS011;65104;52.994;6.552;2023-01-29T00:08:36;17.13;;;9.93;;
76296;SDS011;65104;52.994;6.552;2023-01-29T00:11:02;18.63;;;9.15;;
76296;SDS011;65104;52.994;6.552;2023-01-29T00:13:30;28.77;;;14.45;;
76296;SDS011;65104;52.994;6.552;2023-01-29T00:15:56;19.50;;;10.13;;
76296;SDS011;65104;52.994;6.552;2023-01-29T00:18:22;19.83;;;10.10;;
76296;SDS011;65104;52.994;6.552;2023-01-29T00:20:49;34.67;;;15.10;;
76296;SDS011;65104;52.994;6.552;2023-01-29T00:23:15;20.42;;;11.15;;
76296;SDS011;65104;52.994;6.552;2023-01-29T00:25:41;19.52;;;10.13;;
76296;SDS011;65104;52.994;6.552;2023-01-29T00:28:07;17.30;;;9.43;;
76296;SDS011;65104;52.994;6.552;2023-01-29T00:30:32;18.15;;;10.55;;
76296;SDS011;65104;52.994;6.552;2023-01-29T00:32:58;17.48;;;9.73;;
76296;SDS011;65104;52.994;6.552;2023-01-29T00:35:23;16.85;;;9.60;;
76296;SDS011;65104;52.994;6.552;2023-01-29T00:37:49;15.73;;;10.15;;
76296;SDS011;65104;52.994;6.552;2023-01-29T00:40:14;19.88;;;10.57;;
76296;SDS011;65104;52.994;6.552;2023-01-29T00:42:40;14.90;;;8.23;;
76296;SDS011;65104;52.994;6.552;2023-01-29T00:45:23;20.70;;;9.77;;
76296;SDS011;65104;52.994;6.552;2023-01-29T00:47:49;16.83;;;9.18;;
76296;SDS011;65104;52.994;6.552;2023-01-29T00:50:14;17.75;;;9.27;;
76296;SDS011;65104;52.994;6.552;2023-01-29T00:52:40;20.48;;;9.93;;
76296;SDS011;65104;52.994;6.552;2023-01-29T00:55:05;16.95;;;8.70;;
76296;SDS011;65104;52.994;6.552;2023-01-29T00:57:33;16.30;;;9.60;;
76296;SDS011;65104;52.994;6.552;2023-01-29T00:59:59;15.00;;;9.10;;
76296;SDS011;65104;52.994;6.552;2023-01-29T01:02:25;18.92;;;9.75;;
76296;SDS011;65104;52.994;6.552;2023-01-29T01:05:12;16.08;;;8.80;;
76296;SDS011;65104;52.994;6.552;2023-01-29T01:07:42;17.42;;;9.68;;
76296;SDS011;65104;52.994;6.552;2023-01-29T01:10:19;17.17;;;9.65;;
76296;SDS011;65104;52.994;6.552;2023-01-29T01:12:56;16.00;;;9.15;;
76296;SDS011;65104;52.994;6.552;2023-01-29T01:15:24;17.52;;;10.25;;
76296;SDS011;65104;52.994;6.552;2023-01-29T01:17:59;16.30;;;9.98;;
76296;SDS011;65104;52.994;6.552;2023-01-29T01:20:26;16.98;;;10.18;;
76296;SDS011;65104;52.994;6.552;2023-01-29T01:22:53;21.25;;;10.27;;
76296;SDS011;65104;52.994;6.552;2023-01-29T01:25:20;16.88;;;10.60;;
76296;SDS011;65104;52.994;6.552;2023-01-29T01:27:51;19.25;;;10.10;;
76296;SDS011;65104;52.994;6.552;2023-01-29T01:30:20;18.08;;;10.20;;
76296;SDS011;65104;52.994;6.552;2023-01-29T01:32:47;20.98;;;10.60;;
76296;SDS011;65104;52.994;6.552;2023-01-29T01:35:12;19.20;;;9.98;;
76296;SDS011;65104;52.994;6.552;2023-01-29T01:37:39;18.75;;;10.80;;
76296;SDS011;65104;52.994;6.552;2023-01-29T01:40:05;20.30;;;11.32;;
76296;SDS011;65104;52.994;6.552;2023-01-29T01:42:40;18.55;;;10.60;;
76296;SDS011;65104;52.994;6.552;2023-01-29T01:45:06;23.00;;;12.38;;
76296;SDS011;65104;52.994;6.552;2023-01-29T01:50:14;20.20;;;10.65;;
76296;SDS011;65104;52.994;6.552;2023-01-29T01:52:48;17.02;;;10.45;;
76296;SDS011;65104;52.994;6.552;2023-01-29T01:55:18;19.15;;;11.15;;
76296;SDS011;65104;52.994;6.552;2023-01-29T01:57:46;19.80;;;10.30;;
76296;SDS011;65104;52.994;6.552;2023-01-29T02:00:15;20.83;;;11.20;;
76296;SDS011;65104;52.994;6.552;2023-01-29T02:02:43;18.92;;;10.15;;
76296;SDS011;65104;52.994;6.552;2023-01-29T02:05:32;18.17;;;10.18;;
76296;SDS011;65104;52.994;6.552;2023-01-29T02:08:25;17.90;;;11.10;;
76296;SDS011;65104;52.994;6.552;2023-01-29T02:11:31;20.38;;;10.77;;
76296;SDS011;65104;52.994;6.552;2023-01-29T02:13:56;17.67;;;10.02;;
76296;SDS011;65104;52.994;6.552;2023-01-29T02:16:22;20.02;;;10.57;;
76296;SDS011;65104;52.994;6.552;2023-01-29T02:18:48;17.42;;;10.73;;
76296;SDS011;65104;52.994;6.552;2023-01-29T02:41:12;19.48;;;10.98;;
76296;SDS011;65104;52.994;6.552;2023-01-29T02:43:47;18.98;;;10.43;;
76296;SDS011;65104;52.994;6.552;2023-01-29T02:49:11;20.13;;;10.60;;
76296;SDS011;65104;52.994;6.552;2023-01-29T02:51:39;19.98;;;10.77;;
76296;SDS011;65104;52.994;6.552;2023-01-29T02:59:31;17.63;;;10.10;;
76296;SDS011;65104;52.994;6.552;2023-01-29T03:02:14;16.60;;;9.85;;
76296;SDS011;65104;52.994;6.552;2023-01-29T03:04:52;16.08;;;9.52;;
76296;SDS011;65104;52.994;6.552;2023-01-29T03:07:29;18.35;;;9.23;;
76296;SDS011;65104;52.994;6.552;2023-01-29T03:10:08;19.15;;;10.00;;
76296;SDS011;65104;52.994;6.552;2023-01-29T03:12:36;19.27;;;10.35;;
76296;SDS011;65104;52.994;6.552;2023-01-29T03:15:07;18.15;;;10.50;;
76296;SDS011;65104;52.994;6.552;2023-01-29T03:20:28;18.88;;;9.82;;
76296;SDS011;65104;52.994;6.552;2023-01-29T03:23:02;18.88;;;10.23;;
76296;SDS011;65104;52.994;6.552;2023-01-29T03:25:33;19.10;;;10.13;;
76296;SDS011;65104;52.994;6.552;2023-01-29T03:28:18;20.75;;;9.50;;
76296;SDS011;65104;52.994;6.552;2023-01-29T03:31:05;17.50;;;9.23;;
76296;SDS011;65104;52.994;6.552;2023-01-29T03:36:56;15.23;;;9.70;;
76296;SDS011;65104;52.994;6.552;2023-01-29T03:39:24;18.38;;;9.63;;
76296;SDS011;65104;52.994;6.552;2023-01-29T03:42:04;18.65;;;9.40;;
76296;SDS011;65104;52.994;6.552;2023-01-29T03:47:53;17.48;;;9.57;;
76296;SDS011;65104;52.994;6.552;2023-01-29T03:53:24;16.08;;;8.85;;
76296;SDS011;65104;52.994;6.552;2023-01-29T03:56:05;23.80;;;10.25;;
76296;SDS011;65104;52.994;6.552;2023-01-29T03:58:47;17.63;;;9.45;;
76296;SDS011;65104;52.994;6.552;2023-01-29T04:01:24;16.90;;;9.25;;
76296;SDS011;65104;52.994;6.552;2023-01-29T04:03:58;18.90;;;10.52;;
76296;SDS011;65104;52.994;6.552;2023-01-29T04:06:33;17.38;;;9.18;;
76296;SDS011;65104;52.994;6.552;2023-01-29T04:09:03;20.95;;;10.93;;
76296;SDS011;65104;52.994;6.552;2023-01-29T04:11:32;15.60;;;8.75;;
76296;SDS011;65104;52.994;6.552;2023-01-29T04:14:00;18.17;;;9.77;;
76296;SDS011;65104;52.994;6.552;2023-01-29T04:16:27;18.90;;;9.80;;
76296;SDS011;65104;52.994;6.552;2023-01-29T04:18:56;19.90;;;10.05;;
76296;SDS011;65104;52.994;6.552;2023-01-29T04:21:21;19.33;;;9.38;;
76296;SDS011;65104;52.994;6.552;2023-01-29T04:23:48;19.45;;;9.30;;
76296;SDS011;65104;52.994;6.552;2023-01-29T04:26:24;17.88;;;9.32;;
76296;SDS011;65104;52.994;6.552;2023-01-29T04:28:54;19.08;;;9.25;;
76296;SDS011;65104;52.994;6.552;2023-01-29T04:31:31;16.55;;;9.00;;
76296;SDS011;65104;52.994;6.552;2023-01-29T04:39:31;17.67;;;9.73;;
76296;SDS011;65104;52.994;6.552;2023-01-29T04:52:55;17.27;;;10.00;;
76296;SDS011;65104;52.994;6.552;2023-01-29T04:58:24;19.45;;;10.05;;
76296;SDS011;65104;52.994;6.552;2023-01-29T05:00:56;17.60;;;9.68;;
76296;SDS011;65104;52.994;6.552;2023-01-29T05:03:23;18.95;;;9.43;;
76296;SDS011;65104;52.994;6.552;2023-01-29T05:05:51;18.35;;;10.05;;
76296;SDS011;65104;52.994;6.552;2023-01-29T05:08:19;20.63;;;9.35;;
76296;SDS011;65104;52.994;6.552;2023-01-29T05:10:48;18.95;;;9.60;;
76296;SDS011;65104;52.994;6.552;2023-01-29T05:15:50;17.17;;;9.93;;
76296;SDS011;65104;52.994;6.552;2023-01-29T05:18:18;20.42;;;10.65;;
76296;SDS011;65104;52.994;6.552;2023-01-29T05:20:43;19.23;;;10.30;;
76296;SDS011;65104;52.994;6.552;2023-01-29T05:23:20;19.52;;;10.75;;
76296;SDS011;65104;52.994;6.552;2023-01-29T05:25:47;20.35;;;10.35;;
76296;SDS011;65104;52.994;6.552;2023-01-29T05:28:14;22.75;;;11.02;;
76296;SDS011;65104;52.994;6.552;2023-01-29T05:30:41;22.75;;;11.25;;
76296;SDS011;65104;52.994;6.552;2023-01-29T05:33:18;23.83;;;12.43;;
76296;SDS011;65104;52.994;6.552;2023-01-29T05:35:45;23.25;;;11.57;;
76296;SDS011;65104;52.994;6.552;2023-01-29T05:38:11;21.38;;;11.15;;
76296;SDS011;65104;52.994;6.552;2023-01-29T05:40:37;22.25;;;11.45;;
76296;SDS011;65104;52.994;6.552;2023-01-29T05:43:03;20.58;;;10.63;;
76296;SDS011;65104;52.994;6.552;2023-01-29T05:45:30;23.33;;;10.82;;
76296;SDS011;65104;52.994;6.552;2023-01-29T05:47:58;24.25;;;13.13;;
76296;SDS011;65104;52.994;6.552;2023-01-29T05:50:25;24.73;;;13.05;;
76296;SDS011;65104;52.994;6.552;2023-01-29T05:52:58;23.75;;;12.73;;
76296;SDS011;65104;52.994;6.552;2023-01-29T05:55:24;24.40;;;12.50;;
76296;SDS011;65104;52.994;6.552;2023-01-29T05:57:50;24.60;;;12.20;;
76296;SDS011;65104;52.994;6.552;2023-01-29T06:00:15;20.08;;;10.95;;
76296;SDS011;65104;52.994;6.552;2023-01-29T06:02:41;23.00;;;12.88;;
76296;SDS011;65104;52.994;6.552;2023-01-29T06:05:06;23.75;;;12.27;;
76296;SDS011;65104;52.994;6.552;2023-01-29T06:07:32;24.17;;;12.60;;
76296;SDS011;65104;52.994;6.552;2023-01-29T06:09:58;25.48;;;13.52;;
76296;SDS011;65104;52.994;6.552;2023-01-29T06:12:23;27.05;;;13.10;;
76296;SDS011;65104;52.994;6.552;2023-01-29T06:14:49;25.38;;;13.32;;
76296;SDS011;65104;52.994;6.552;2023-01-29T06:17:14;26.60;;;12.60;;
76296;SDS011;65104;52.994;6.552;2023-01-29T06:19:40;22.92;;;13.07;;
76296;SDS011;65104;52.994;6.552;2023-01-29T06:22:05;23.85;;;13.40;;
76296;SDS011;65104;52.994;6.552;2023-01-29T06:24:30;23.02;;;13.20;;
76296;SDS011;65104;52.994;6.552;2023-01-29T06:26:56;24.05;;;13.32;;
76296;SDS011;65104;52.994;6.552;2023-01-29T06:29:22;24.60;;;13.15;;
76296;SDS011;65104;52.994;6.552;2023-01-29T06:31:47;25.50;;;13.50;;
76296;SDS011;65104;52.994;6.552;2023-01-29T06:34:12;23.92;;;12.80;;
76296;SDS011;65104;52.994;6.552;2023-01-29T06:36:38;22.90;;;13.82;;
76296;SDS011;65104;52.994;6.552;2023-01-29T06:39:03;24.15;;;12.93;;
76296;SDS011;65104;52.994;6.552;2023-01-29T06:41:29;27.50;;;13.65;;
76296;SDS011;65104;52.994;6.552;2023-01-29T06:43:54;19.92;;;12.35;;
76296;SDS011;65104;52.994;6.552;2023-01-29T06:46:20;21.67;;;13.52;;
76296;SDS011;65104;52.994;6.552;2023-01-29T06:48:45;30.67;;;14.50;;
76296;SDS011;65104;52.994;6.552;2023-01-29T06:51:10;22.98;;;13.07;;
76296;SDS011;65104;52.994;6.552;2023-01-29T06:53:36;26.48;;;14.30;;
76296;SDS011;65104;52.994;6.552;2023-01-29T06:56:03;19.92;;;12.57;;
76296;SDS011;65104;52.994;6.552;2023-01-29T06:58:29;22.48;;;12.65;;
76296;SDS011;65104;52.994;6.552;2023-01-29T07:01:01;23.52;;;14.13;;
76296;SDS011;65104;52.994;6.552;2023-01-29T07:03:28;27.52;;;13.52;;
76296;SDS011;65104;52.994;6.552;2023-01-29T07:05:53;27.83;;;13.88;;
76296;SDS011;65104;52.994;6.552;2023-01-29T07:08:18;28.00;;;14.90;;
76296;SDS011;65104;52.994;6.552;2023-01-29T07:10:46;28.05;;;15.07;;
76296;SDS011;65104;52.994;6.552;2023-01-29T07:13:12;24.85;;;13.55;;
76296;SDS011;65104;52.994;6.552;2023-01-29T07:15:37;28.67;;;15.20;;
76296;SDS011;65104;52.994;6.552;2023-01-29T07:18:03;29.83;;;15.52;;
76296;SDS011;65104;52.994;6.552;2023-01-29T07:20:35;26.52;;;15.63;;
76296;SDS011;65104;52.994;6.552;2023-01-29T07:23:02;27.20;;;14.02;;
76296;SDS011;65104;52.994;6.552;2023-01-29T07:25:28;25.42;;;14.57;;
76296;SDS011;65104;52.994;6.552;2023-01-29T07:27:54;23.00;;;13.23;;
76296;SDS011;65104;52.994;6.552;2023-01-29T07:30:20;27.25;;;14.77;;
76296;SDS011;65104;52.994;6.552;2023-01-29T07:32:46;24.75;;;13.73;;
76296;SDS011;65104;52.994;6.552;2023-01-29T07:35:11;31.27;;;16.35;;
76296;SDS011;65104;52.994;6.552;2023-01-29T07:37:37;27.08;;;15.50;;
76296;SDS011;65104;52.994;6.552;2023-01-29T07:40:02;26.13;;;15.48;;
76296;SDS011;65104;52.994;6.552;2023-01-29T07:42:34;30.70;;;16.48;;
76296;SDS011;65104;52.994;6.552;2023-01-29T07:44:59;28.80;;;14.82;;
76296;SDS011;65104;52.994;6.552;2023-01-29T07:47:25;29.45;;;14.48;;
76296;SDS011;65104;52.994;6.552;2023-01-29T07:49:50;30.00;;;16.58;;
76296;SDS011;65104;52.994;6.552;2023-01-29T07:52:16;30.30;;;15.25;;
76296;SDS011;65104;52.994;6.552;2023-01-29T07:54:42;27.83;;;16.35;;
76296;SDS011;65104;52.994;6.552;2023-01-29T07:57:08;26.95;;;14.82;;
76296;SDS011;65104;52.994;6.552;2023-01-29T07:59:33;31.48;;;15.77;;
76296;SDS011;65104;52.994;6.552;2023-01-29T08:01:58;28.05;;;16.65;;
76296;SDS011;65104;52.994;6.552;2023-01-29T08:04:24;29.50;;;16.35;;
76296;SDS011;65104;52.994;6.552;2023-01-29T08:06:49;29.70;;;15.85;;
76296;SDS011;65104;52.994;6.552;2023-01-29T08:09:15;28.67;;;15.50;;
76296;SDS011;65104;52.994;6.552;2023-01-29T08:11:40;31.52;;;16.38;;
76296;SDS011;65104;52.994;6.552;2023-01-29T08:14:05;32.10;;;16.33;;
76296;SDS011;65104;52.994;6.552;2023-01-29T08:16:33;29.80;;;15.07;;
76296;SDS011;65104;52.994;6.552;2023-01-29T08:19:00;29.73;;;16.15;;
76296;SDS011;65104;52.994;6.552;2023-01-29T08:21:26;26.98;;;15.10;;
76296;SDS011;65104;52.994;6.552;2023-01-29T08:23:51;30.13;;;15.63;;
76296;SDS011;65104;52.994;6.552;2023-01-29T08:26:17;26.63;;;14.82;;
76296;SDS011;65104;52.994;6.552;2023-01-29T08:28:42;31.38;;;15.40;;
76296;SDS011;65104;52.994;6.552;2023-01-29T08:31:17;28.55;;;15.93;;
76296;SDS011;65104;52.994;6.552;2023-01-29T08:33:46;22.65;;;13.32;;
76296;SDS011;65104;52.994;6.552;2023-01-29T08:36:12;29.05;;;14.18;;
76296;SDS011;65104;52.994;6.552;2023-01-29T08:38:38;31.27;;;14.90;;
76296;SDS011;65104;52.994;6.552;2023-01-29T08:41:04;31.10;;;16.13;;
76296;SDS011;65104;52.994;6.552;2023-01-29T08:43:30;26.95;;;14.98;;
76296;SDS011;65104;52.994;6.552;2023-01-29T08:45:55;27.05;;;16.52;;
76296;SDS011;65104;52.994;6.552;2023-01-29T08:48:21;27.15;;;14.40;;
76296;SDS011;65104;52.994;6.552;2023-01-29T08:50:46;30.20;;;15.77;;
76296;SDS011;65104;52.994;6.552;2023-01-29T08:53:12;29.55;;;15.45;;
76296;SDS011;65104;52.994;6.552;2023-01-29T08:55:38;30.52;;;15.88;;
76296;SDS011;65104;52.994;6.552;2023-01-29T08:58:05;28.00;;;14.60;;
76296;SDS011;65104;52.994;6.552;2023-01-29T09:00:34;31.92;;;16.25;;
76296;SDS011;65104;52.994;6.552;2023-01-29T09:03:00;36.45;;;18.38;;
76296;SDS011;65104;52.994;6.552;2023-01-29T09:05:28;29.77;;;15.18;;
76296;SDS011;65104;52.994;6.552;2023-01-29T09:07:56;31.50;;;16.52;;
76296;SDS011;65104;52.994;6.552;2023-01-29T09:10:22;35.50;;;15.15;;
76296;SDS011;65104;52.994;6.552;2023-01-29T09:12:48;27.90;;;15.93;;
76296;SDS011;65104;52.994;6.552;2023-01-29T09:15:14;28.05;;;15.15;;
76296;SDS011;65104;52.994;6.552;2023-01-29T09:17:39;29.27;;;15.05;;
76296;SDS011;65104;52.994;6.552;2023-01-29T09:20:05;29.83;;;14.68;;
76296;SDS011;65104;52.994;6.552;2023-01-29T09:22:32;35.30;;;15.05;;
76296;SDS011;65104;52.994;6.552;2023-01-29T09:24:57;32.55;;;16.80;;
76296;SDS011;65104;52.994;6.552;2023-01-29T09:27:23;29.40;;;14.50;;
76296;SDS011;65104;52.994;6.552;2023-01-29T09:29:49;30.05;;;15.40;;
76296;SDS011;65104;52.994;6.552;2023-01-29T09:32:14;28.98;;;15.02;;
76296;SDS011;65104;52.994;6.552;2023-01-29T09:34:39;31.08;;;15.48;;
76296;SDS011;65104;52.994;6.552;2023-01-29T09:37:05;34.40;;;16.13;;
76296;SDS011;65104;52.994;6.552;2023-01-29T09:39:30;31.77;;;14.90;;
76296;SDS011;65104;52.994;6.552;2023-01-29T09:42:02;27.75;;;13.23;;
76296;SDS011;65104;52.994;6.552;2023-01-29T09:47:26;34.95;;;16.45;;
76296;SDS011;65104;52.994;6.552;2023-01-29T09:49:54;20.55;;;11.52;;
76296;SDS011;65104;52.994;6.552;2023-01-29T09:52:29;32.10;;;15.35;;
76296;SDS011;65104;52.994;6.552;2023-01-29T10:25:13;34.80;;;14.50;;
76296;SDS011;65104;52.994;6.552;2023-01-29T10:27:44;30.13;;;14.82;;
76296;SDS011;65104;52.994;6.552;2023-01-29T10:30:21;34.30;;;15.80;;
76296;SDS011;65104;52.994;6.552;2023-01-29T10:33:11;33.45;;;15.77;;
76296;SDS011;65104;52.994;6.552;2023-01-29T10:35:42;30.33;;;14.30;;
76296;SDS011;65104;52.994;6.552;2023-01-29T10:38:23;30.77;;;15.30;;
76296;SDS011;65104;52.994;6.552;2023-01-29T10:41:02;31.80;;;14.75;;
76296;SDS011;65104;52.994;6.552;2023-01-29T10:43:52;32.78;;;15.25;;
76296;SDS011;65104;52.994;6.552;2023-01-29T10:46:28;32.67;;;15.50;;
76296;SDS011;65104;52.994;6.552;2023-01-29T10:49:40;30.30;;;14.68;;
76296;SDS011;65104;52.994;6.552;2023-01-29T11:00:34;35.03;;;17.38;;
76296;SDS011;65104;52.994;6.552;2023-01-29T11:03:13;34.50;;;16.85;;
76296;SDS011;65104;52.994;6.552;2023-01-29T11:05:48;34.00;;;16.52;;
76296;SDS011;65104;52.994;6.552;2023-01-29T11:08:22;36.15;;;16.83;;
76296;SDS011;65104;52.994;6.552;2023-01-29T11:11:06;38.13;;;17.42;;
76296;SDS011;65104;52.994;6.552;2023-01-29T11:13:36;32.67;;;15.73;;
76296;SDS011;65104;52.994;6.552;2023-01-29T11:16:07;35.30;;;15.73;;
76296;SDS011;65104;52.994;6.552;2023-01-29T11:21:15;37.28;;;18.38;;
76296;SDS011;65104;52.994;6.552;2023-01-29T11:23:41;37.20;;;16.98;;
76296;SDS011;65104;52.994;6.552;2023-01-29T11:26:07;38.63;;;18.10;;
76296;SDS011;65104;52.994;6.552;2023-01-29T11:28:40;36.22;;;17.25;;
76296;SDS011;65104;52.994;6.552;2023-01-29T11:33:46;37.13;;;18.00;;
76296;SDS011;65104;52.994;6.552;2023-01-29T11:39:14;39.63;;;17.63;;
76296;SDS011;65104;52.994;6.552;2023-01-29T11:41:52;33.38;;;15.73;;
76296;SDS011;65104;52.994;6.552;2023-01-29T11:46:53;47.97;;;15.10;;
76296;SDS011;65104;52.994;6.552;2023-01-29T11:49:27;36.28;;;16.75;;
76296;SDS011;65104;52.994;6.552;2023-01-29T11:51:56;36.22;;;17.65;;
76296;SDS011;65104;52.994;6.552;2023-01-29T11:54:26;33.83;;;16.60;;
76296;SDS011;65104;52.994;6.552;2023-01-29T11:57:04;33.53;;;16.77;;
76296;SDS011;65104;52.994;6.552;2023-01-29T11:59:44;32.13;;;15.60;;
76296;SDS011;65104;52.994;6.552;2023-01-29T12:07:56;36.00;;;15.80;;
76296;SDS011;65104;52.994;6.552;2023-01-29T12:15:35;31.95;;;15.55;;
76296;SDS011;65104;52.994;6.552;2023-01-29T12:18:11;27.67;;;12.80;;
76296;SDS011;65104;52.994;6.552;2023-01-29T12:20:45;31.85;;;15.05;;
76296;SDS011;65104;52.994;6.552;2023-01-29T12:23:31;33.45;;;15.95;;
76296;SDS011;65104;52.994;6.552;2023-01-29T12:26:05;31.38;;;15.73;;
76296;SDS011;65104;52.994;6.552;2023-01-29T12:28:47;34.53;;;16.33;;
76296;SDS011;65104;52.994;6.552;2023-01-29T12:33:59;28.13;;;13.52;;
76296;SDS011;65104;52.994;6.552;2023-01-29T12:36:35;32.97;;;16.58;;
76296;SDS011;65104;52.994;6.552;2023-01-29T12:39:17;31.17;;;15.38;;
76296;SDS011;65104;52.994;6.552;2023-01-29T12:41:44;33.72;;;15.57;;
76296;SDS011;65104;52.994;6.552;2023-01-29T12:44:18;31.88;;;15.88;;
76296;SDS011;65104;52.994;6.552;2023-01-29T12:46:51;30.17;;;15.13;;
76296;SDS011;65104;52.994;6.552;2023-01-29T12:49:38;29.77;;;15.80;;
76296;SDS011;65104;52.994;6.552;2023-01-29T12:54:35;32.10;;;16.15;;
76296;SDS011;65104;52.994;6.552;2023-01-29T12:57:06;31.05;;;16.20;;
76296;SDS011;65104;52.994;6.552;2023-01-29T12:59:44;35.70;;;15.90;;
76296;SDS011;65104;52.994;6.552;2023-01-29T13:05:00;32.00;;;15.27;;
76296;SDS011;65104;52.994;6.552;2023-01-29T13:07:37;33.17;;;16.73;;
76296;SDS011;65104;52.994;6.552;2023-01-29T13:10:08;31.85;;;16.83;;
76296;SDS011;65104;52.994;6.552;2023-01-29T13:12:39;32.25;;;15.63;;
76296;SDS011;65104;52.994;6.552;2023-01-29T13:15:37;31.05;;;13.35;;
76296;SDS011;65104;52.994;6.552;2023-01-29T13:21:10;29.98;;;15.40;;
76296;SDS011;65104;52.994;6.552;2023-01-29T13:23:43;32.67;;;16.20;;
76296;SDS011;65104;52.994;6.552;2023-01-29T13:26:11;33.72;;;16.30;;
76296;SDS011;65104;52.994;6.552;2023-01-29T13:28:41;32.90;;;16.38;;
76296;SDS011;65104;52.994;6.552;2023-01-29T13:33:55;37.85;;;16.73;;
76296;SDS011;65104;52.994;6.552;2023-01-29T13:36:44;39.33;;;17.70;;
76296;SDS011;65104;52.994;6.552;2023-01-29T13:39:31;31.65;;;15.32;;
76296;SDS011;65104;52.994;6.552;2023-01-29T13:42:02;31.80;;;16.17;;
76296;SDS011;65104;52.994;6.552;2023-01-29T13:44:40;34.10;;;16.90;;
76296;SDS011;65104;52.994;6.552;2023-01-29T13:47:06;35.10;;;17.60;;
76296;SDS011;65104;52.994;6.552;2023-01-29T13:49:36;32.15;;;17.90;;
76296;SDS011;65104;52.994;6.552;2023-01-29T13:54:57;31.20;;;16.48;;
76296;SDS011;65104;52.994;6.552;2023-01-29T13:57:44;30.35;;;15.27;;
76296;SDS011;65104;52.994;6.552;2023-01-29T14:02:45;34.05;;;16.70;;
76296;SDS011;65104;52.994;6.552;2023-01-29T14:08:37;31.52;;;16.95;;
76296;SDS011;65104;52.994;6.552;2023-01-29T14:10:45;34.40;;;16.25;;
76296;SDS011;65104;52.994;6.552;2023-01-29T14:13:43;35.83;;;16.23;;
76296;SDS011;65104;52.994;6.552;2023-01-29T14:18:36;34.67;;;16.30;;
76296;SDS011;65104;52.994;6.552;2023-01-29T14:21:21;40.78;;;19.38;;
76296;SDS011;65104;52.994;6.552;2023-01-29T14:23:53;37.35;;;17.23;;
76296;SDS011;65104;52.994;6.552;2023-01-29T14:29:17;34.55;;;16.20;;
76296;SDS011;65104;52.994;6.552;2023-01-29T14:31:59;36.72;;;16.88;;
76296;SDS011;65104;52.994;6.552;2023-01-29T14:34:35;37.42;;;17.25;;
76296;SDS011;65104;52.994;6.552;2023-01-29T14:39:42;34.38;;;17.33;;
76296;SDS011;65104;52.994;6.552;2023-01-29T14:44:47;40.10;;;18.67;;
76296;SDS011;65104;52.994;6.552;2023-01-29T14:47:50;36.03;;;17.95;;
76296;SDS011;65104;52.994;6.552;2023-01-29T14:53:00;34.80;;;17.45;;
76296;SDS011;65104;52.994;6.552;2023-01-29T14:55:30;39.83;;;18.48;;
76296;SDS011;65104;52.994;6.552;2023-01-29T14:58:03;37.83;;;17.65;;
76296;SDS011;65104;52.994;6.552;2023-01-29T15:00:30;44.83;;;19.83;;
76296;SDS011;65104;52.994;6.552;2023-01-29T15:03:00;39.03;;;18.23;;
76296;SDS011;65104;52.994;6.552;2023-01-29T15:08:08;40.45;;;18.30;;
76296;SDS011;65104;52.994;6.552;2023-01-29T15:10:47;43.40;;;17.67;;
76296;SDS011;65104;52.994;6.552;2023-01-29T15:13:41;41.70;;;18.90;;
76296;SDS011;65104;52.994;6.552;2023-01-29T15:16:16;40.08;;;17.77;;
76296;SDS011;65104;52.994;6.552;2023-01-29T15:18:44;41.83;;;19.25;;
76296;SDS011;65104;52.994;6.552;2023-01-29T15:21:13;45.95;;;20.65;;
76296;SDS011;65104;52.994;6.552;2023-01-29T15:23:40;46.03;;;21.58;;
76296;SDS011;65104;52.994;6.552;2023-01-29T15:26:08;75.30;;;36.00;;
76296;SDS011;65104;52.994;6.552;2023-01-29T15:28:35;82.07;;;40.80;;
76296;SDS011;65104;52.994;6.552;2023-01-29T15:31:03;47.78;;;22.02;;
76296;SDS011;65104;52.994;6.552;2023-01-29T15:33:32;41.97;;;19.33;;
76296;SDS011;65104;52.994;6.552;2023-01-29T15:36:00;45.45;;;22.30;;
76296;SDS011;65104;52.994;6.552;2023-01-29T15:38:27;53.90;;;25.00;;
76296;SDS011;65104;52.994;6.552;2023-01-29T15:40:57;48.40;;;25.83;;
76296;SDS011;65104;52.994;6.552;2023-01-29T15:43:25;54.05;;;23.20;;
76296;SDS011;65104;52.994;6.552;2023-01-29T15:48:33;46.03;;;22.65;;
76296;SDS011;65104;52.994;6.552;2023-01-29T15:51:01;53.65;;;24.10;;
76296;SDS011;65104;52.994;6.552;2023-01-29T15:53:41;58.70;;;27.77;;
76296;SDS011;65104;52.994;6.552;2023-01-29T15:56:14;52.22;;;24.67;;
76296;SDS011;65104;52.994;6.552;2023-01-29T15:58:45;59.28;;;28.77;;
76296;SDS011;65104;52.994;6.552;2023-01-29T16:01:13;61.35;;;28.23;;
76296;SDS011;65104;52.994;6.552;2023-01-29T16:03:39;58.95;;;29.70;;
76296;SDS011;65104;52.994;6.552;2023-01-29T16:06:05;58.88;;;28.33;;
76296;SDS011;65104;52.994;6.552;2023-01-29T16:08:32;44.20;;;20.17;;
76296;SDS011;65104;52.994;6.552;2023-01-29T16:11:02;51.75;;;24.15;;
76296;SDS011;65104;52.994;6.552;2023-01-29T16:13:30;48.90;;;21.08;;
76296;SDS011;65104;52.994;6.552;2023-01-29T16:15:59;55.42;;;25.00;;
76296;SDS011;65104;52.994;6.552;2023-01-29T16:18:36;39.95;;;19.05;;
76296;SDS011;65104;52.994;6.552;2023-01-29T16:21:13;55.10;;;24.80;;
76296;SDS011;65104;52.994;6.552;2023-01-29T16:23:47;58.15;;;23.60;;
76296;SDS011;65104;52.994;6.552;2023-01-29T16:26:16;45.50;;;19.55;;
76296;SDS011;65104;52.994;6.552;2023-01-29T16:28:45;46.42;;;21.23;;
76296;SDS011;65104;52.994;6.552;2023-01-29T16:31:11;56.70;;;27.27;;
76296;SDS011;65104;52.994;6.552;2023-01-29T16:33:44;50.78;;;22.20;;
76296;SDS011;65104;52.994;6.552;2023-01-29T16:36:12;60.05;;;26.48;;
76296;SDS011;65104;52.994;6.552;2023-01-29T16:38:49;52.33;;;26.25;;
76296;SDS011;65104;52.994;6.552;2023-01-29T16:46:30;51.35;;;22.75;;
76296;SDS011;65104;52.994;6.552;2023-01-29T16:48:56;46.40;;;23.13;;
76296;SDS011;65104;52.994;6.552;2023-01-29T16:53:58;49.38;;;23.02;;
76296;SDS011;65104;52.994;6.552;2023-01-29T16:56:24;48.50;;;22.58;;
76296;SDS011;65104;52.994;6.552;2023-01-29T16:58:56;50.05;;;23.33;;
76296;SDS011;65104;52.994;6.552;2023-01-29T17:01:23;48.60;;;21.60;;
76296;SDS011;65104;52.994;6.552;2023-01-29T17:03:55;47.67;;;23.67;;
76296;SDS011;65104;52.994;6.552;2023-01-29T17:06:26;80.97;;;37.97;;
76296;SDS011;65104;52.994;6.552;2023-01-29T17:08:52;53.28;;;23.77;;
76296;SDS011;65104;52.994;6.552;2023-01-29T17:11:36;65.30;;;28.33;;
76296;SDS011;65104;52.994;6.552;2023-01-29T17:14:05;113.47;;;44.67;;
76296;SDS011;65104;52.994;6.552;2023-01-29T17:16:33;46.13;;;22.45;;
76296;SDS011;65104;52.994;6.552;2023-01-29T17:19:17;45.50;;;21.38;;
76296;SDS011;65104;52.994;6.552;2023-01-29T17:21:47;54.42;;;23.98;;
76296;SDS011;65104;52.994;6.552;2023-01-29T17:24:13;54.60;;;23.63;;
76296;SDS011;65104;52.994;6.552;2023-01-29T17:26:38;45.88;;;23.65;;
76296;SDS011;65104;52.994;6.552;2023-01-29T17:29:04;66.50;;;28.83;;
76296;SDS011;65104;52.994;6.552;2023-01-29T17:31:32;42.58;;;21.00;;
76296;SDS011;65104;52.994;6.552;2023-01-29T17:33:57;66.55;;;30.05;;
76296;SDS011;65104;52.994;6.552;2023-01-29T17:36:24;48.05;;;21.23;;
76296;SDS011;65104;52.994;6.552;2023-01-29T17:38:50;53.28;;;25.15;;